createdAt,value
2018-05-23T00:01:38.824Z,12.87
2018-05-23T00:04:07.388Z,13.77
2018-05-23T00:06:35.951Z,13.27
2018-05-23T00:09:03.621Z,13.27
2018-05-23T00:11:32.180Z,13.73
2018-05-23T00:14:00.750Z,13.50
2018-05-23T00:16:29.310Z,14.40
2018-05-23T00:18:57.878Z,13.00
2018-05-23T00:21:26.460Z,10.50
2018-05-23T00:23:55.029Z,10.17
2018-05-23T00:26:23.607Z,12.77
2018-05-23T00:28:52.172Z,13.67
2018-05-23T00:31:20.749Z,13.97
2018-05-23T00:33:49.308Z,12.60
2018-05-23T00:36:17.879Z,12.27
2018-05-23T00:38:46.452Z,12.10
2018-05-23T00:41:15.026Z,12.13
2018-05-23T00:43:43.592Z,11.30
2018-05-23T00:46:12.151Z,11.70
2018-05-23T00:48:40.720Z,11.73
2018-05-23T00:51:09.299Z,13.20
2018-05-23T00:53:37.875Z,12.53
2018-05-23T00:56:06.439Z,12.70
2018-05-23T00:58:35.025Z,12.47
2018-05-23T01:01:03.592Z,11.67
2018-05-23T01:03:32.163Z,12.40
2018-05-23T01:06:00.725Z,13.07
2018-05-23T01:08:29.287Z,11.90
2018-05-23T01:10:57.845Z,12.93
2018-05-23T01:13:26.478Z,13.00
2018-05-23T01:15:55.052Z,13.37
2018-05-23T01:18:23.658Z,13.73
2018-05-23T01:20:52.419Z,13.70
2018-05-23T01:23:20.988Z,14.33
2018-05-23T01:25:49.569Z,14.00
2018-05-23T01:28:18.136Z,13.33
2018-05-23T01:30:46.743Z,13.23
2018-05-23T01:33:15.389Z,14.07
2018-05-23T01:35:44.087Z,15.70
2018-05-23T01:38:12.651Z,14.17
2018-05-23T01:40:41.214Z,13.10
2018-05-23T01:43:09.782Z,12.90
2018-05-23T01:45:38.343Z,12.97
2018-05-23T01:48:06.908Z,12.33
2018-05-23T01:50:35.486Z,12.33
2018-05-23T01:53:04.082Z,12.03
2018-05-23T01:55:32.640Z,12.03
2018-05-23T01:58:01.195Z,12.10
2018-05-23T02:00:29.808Z,12.30
2018-05-23T02:02:58.423Z,12.73
2018-05-23T02:05:27.183Z,12.33
2018-05-23T02:07:55.767Z,12.93
2018-05-23T02:10:24.355Z,12.87
2018-05-23T02:12:52.980Z,13.47
2018-05-23T02:15:21.547Z,13.00
2018-05-23T02:17:50.121Z,12.77
2018-05-23T02:20:18.695Z,12.97
2018-05-23T02:22:47.271Z,15.40
2018-05-23T02:25:15.851Z,14.17
2018-05-23T02:27:44.515Z,14.27
2018-05-23T02:30:13.131Z,15.53
2018-05-23T02:32:42.016Z,16.63
2018-05-23T02:35:10.591Z,18.77
2018-05-23T02:37:39.170Z,19.10
2018-05-23T02:40:07.940Z,18.30
2018-05-23T02:42:36.515Z,20.13
2018-05-23T02:45:05.189Z,21.57
2018-05-23T02:47:33.745Z,19.80
2018-05-23T02:50:02.330Z,20.43
2018-05-23T02:52:30.927Z,22.73
2018-05-23T02:54:59.488Z,21.43
2018-05-23T02:57:28.053Z,21.77
2018-05-23T02:59:56.631Z,22.07
2018-05-23T03:02:25.209Z,21.27
2018-05-23T03:04:53.849Z,21.83
2018-05-23T03:07:22.416Z,23.63
2018-05-23T03:09:51.029Z,21.67
2018-05-23T03:12:19.593Z,21.47
2018-05-23T03:14:48.195Z,21.70
2018-05-23T03:17:17.051Z,22.60
2018-05-23T03:19:45.664Z,21.47
2018-05-23T03:22:14.272Z,22.57
2018-05-23T03:24:42.856Z,23.47
2018-05-23T03:27:11.438Z,22.33
2018-05-23T03:29:40.007Z,21.53
2018-05-23T03:32:08.584Z,22.43
2018-05-23T03:34:37.196Z,22.03
2018-05-23T03:37:05.754Z,22.90
2018-05-23T03:39:34.371Z,22.30
2018-05-23T03:42:02.979Z,20.93
2018-05-23T03:44:31.225Z,22.77
2018-05-23T03:46:59.793Z,22.93
2018-05-23T03:49:28.391Z,21.93
2018-05-23T03:51:57.018Z,20.70
2018-05-23T03:54:25.583Z,20.97
2018-05-23T03:56:54.209Z,20.70
2018-05-23T03:59:33.892Z,18.17
2018-05-23T04:02:13.544Z,17.90
2018-05-23T04:07:48.277Z,19.30
2018-05-23T04:10:16.847Z,19.07
2018-05-23T04:12:45.430Z,19.67
2018-05-23T04:15:14.007Z,19.37
2018-05-23T04:17:42.580Z,21.93
2018-05-23T04:20:11.163Z,19.93
2018-05-23T04:22:39.764Z,20.77
2018-05-23T04:25:08.349Z,20.43
2018-05-23T04:27:36.916Z,19.83
2018-05-23T04:30:06.916Z,20.20
2018-05-23T04:32:35.484Z,19.60
2018-05-23T04:35:04.058Z,17.87
2018-05-23T04:37:32.631Z,19.07
2018-05-23T04:40:01.206Z,19.00
2018-05-23T04:42:29.813Z,18.93
2018-05-23T04:44:58.417Z,20.83
2018-05-23T04:47:26.996Z,19.80
2018-05-23T04:49:55.580Z,19.03
2018-05-23T04:52:24.158Z,17.40
2018-05-23T04:54:52.720Z,17.40
2018-05-23T04:57:21.278Z,18.10
2018-05-23T04:59:49.875Z,18.27
2018-05-23T05:02:18.628Z,17.90
2018-05-23T05:04:47.207Z,18.10
2018-05-23T05:07:16.000Z,17.17
2018-05-23T05:09:44.576Z,16.80
2018-05-23T05:12:13.137Z,16.97
2018-05-23T05:14:41.717Z,17.80
2018-05-23T05:17:10.289Z,17.53
2018-05-23T05:19:38.862Z,16.67
2018-05-23T05:22:07.423Z,18.03
2018-05-23T05:24:35.996Z,18.10
2018-05-23T05:27:04.559Z,17.00
2018-05-23T05:29:33.127Z,17.43
2018-05-23T05:32:01.691Z,16.07
2018-05-23T05:34:30.267Z,17.90
2018-05-23T05:36:58.861Z,17.20
2018-05-23T05:39:27.432Z,17.57
2018-05-23T05:41:56.002Z,17.93
2018-05-23T05:44:24.585Z,17.13
2018-05-23T05:46:53.245Z,18.30
2018-05-23T05:49:21.930Z,18.53
2018-05-23T05:51:50.515Z,20.37
2018-05-23T05:54:19.095Z,19.33
2018-05-23T05:56:47.680Z,19.50
2018-05-23T05:59:16.314Z,19.30
2018-05-23T06:01:45.041Z,19.30
2018-05-23T06:04:13.625Z,19.30
2018-05-23T06:06:42.199Z,19.83
2018-05-23T06:09:10.802Z,19.90
2018-05-23T06:11:39.412Z,20.33
2018-05-23T06:14:07.991Z,19.60
2018-05-23T06:16:36.577Z,19.07
2018-05-23T06:19:05.159Z,19.83
2018-05-23T06:21:33.723Z,19.50
2018-05-23T06:24:02.336Z,19.43
2018-05-23T06:26:30.921Z,18.60
2018-05-23T06:28:59.521Z,19.83
2018-05-23T06:31:28.099Z,19.10
2018-05-23T06:33:56.672Z,18.87
2018-05-23T06:36:25.263Z,18.20
2018-05-23T06:38:53.836Z,19.23
2018-05-23T06:41:22.427Z,18.77
2018-05-23T06:43:50.749Z,18.50
2018-05-23T06:46:19.904Z,18.80
2018-05-23T06:48:50.862Z,18.43
2018-05-23T06:51:19.475Z,17.77
2018-05-23T06:53:48.050Z,17.63
2018-05-23T06:56:16.620Z,17.40
2018-05-23T06:58:45.201Z,17.40
2018-05-23T07:01:13.782Z,16.73
2018-05-23T07:03:42.378Z,16.40
2018-05-23T07:06:10.948Z,16.10
2018-05-23T07:08:39.507Z,16.10
2018-05-23T07:11:08.083Z,16.63
2018-05-23T07:13:36.655Z,18.30
2018-05-23T07:16:05.226Z,17.43
2018-05-23T07:18:33.802Z,16.43
2018-05-23T07:21:02.393Z,17.37
2018-05-23T07:23:30.963Z,17.57
2018-05-23T07:26:00.558Z,16.00
2018-05-23T07:28:29.275Z,16.33
2018-05-23T07:30:57.864Z,16.60
2018-05-23T07:33:26.481Z,17.07
2018-05-23T07:35:55.106Z,17.77
2018-05-23T07:38:23.821Z,16.70
2018-05-23T07:40:52.656Z,17.00
2018-05-23T07:43:21.221Z,16.20
2018-05-23T07:45:49.861Z,16.20
2018-05-23T07:48:18.602Z,16.37
2018-05-23T07:50:47.203Z,16.13
2018-05-23T07:53:15.809Z,16.13
2018-05-23T07:55:44.415Z,16.23
2018-05-23T07:58:13.312Z,16.77
2018-05-23T08:00:41.923Z,15.87
2018-05-23T08:03:10.563Z,17.37
2018-05-23T08:05:39.135Z,19.40
2018-05-23T08:08:07.700Z,19.00
2018-05-23T08:10:36.268Z,15.13
2018-05-23T08:13:04.831Z,14.37
2018-05-23T08:15:33.439Z,13.37
2018-05-23T08:18:02.011Z,13.67
2018-05-23T08:20:30.731Z,19.30
2018-05-23T08:22:59.322Z,14.00
2018-05-23T08:25:28.000Z,89.07
2018-05-23T08:27:56.663Z,17.13
2018-05-23T08:30:26.397Z,25.90
2018-05-23T08:32:55.024Z,12.97
2018-05-23T08:35:23.612Z,12.00
2018-05-23T08:37:53.480Z,12.60
2018-05-23T08:40:22.166Z,12.47
2018-05-23T08:42:50.966Z,14.50
2018-05-23T08:45:19.635Z,14.20
2018-05-23T08:47:48.406Z,11.57
2018-05-23T08:50:16.633Z,13.73
2018-05-23T08:52:45.256Z,10.23
2018-05-23T08:55:14.918Z,12.60
2018-05-23T08:57:43.525Z,11.63
2018-05-23T09:00:12.132Z,12.70
2018-05-23T09:02:40.704Z,15.30
2018-05-23T09:05:09.277Z,17.20
2018-05-23T09:07:37.902Z,16.27
2018-05-23T09:10:06.523Z,18.73
2018-05-23T09:12:35.200Z,11.70
2018-05-23T09:15:03.850Z,17.27
2018-05-23T09:17:32.420Z,10.97
2018-05-23T09:20:00.979Z,25.13
2018-05-23T09:22:29.596Z,10.60
2018-05-23T09:24:58.170Z,17.37
2018-05-23T09:27:26.739Z,9.90
2018-05-23T09:29:55.324Z,10.47
2018-05-23T09:32:23.905Z,15.53
2018-05-23T09:34:52.480Z,8.87
2018-05-23T09:37:21.064Z,8.27
2018-05-23T09:39:49.888Z,8.73
2018-05-23T09:42:18.458Z,10.37
2018-05-23T09:44:47.120Z,9.50
2018-05-23T09:47:15.735Z,8.50
2018-05-23T09:49:44.294Z,7.77
2018-05-23T09:52:12.978Z,7.80
2018-05-23T09:54:41.624Z,6.63
2018-05-23T09:57:10.188Z,7.10
2018-05-23T09:59:38.761Z,8.03
2018-05-23T10:02:07.357Z,7.63
2018-05-23T10:04:35.983Z,8.73
2018-05-23T10:07:04.569Z,7.77
2018-05-23T10:09:33.139Z,7.17
2018-05-23T10:12:01.692Z,7.07
2018-05-23T10:14:30.251Z,7.23
2018-05-23T10:16:58.832Z,7.47
2018-05-23T10:19:27.402Z,6.63
2018-05-23T10:21:55.969Z,6.00
2018-05-23T10:24:24.547Z,6.13
2018-05-23T10:26:53.138Z,6.97
2018-05-23T10:29:21.348Z,7.73
2018-05-23T10:31:49.900Z,7.17
2018-05-23T10:34:18.472Z,7.37
2018-05-23T10:36:47.191Z,7.27
2018-05-23T10:39:15.953Z,7.73
2018-05-23T10:41:44.526Z,7.00
2018-05-23T10:44:13.136Z,6.30
2018-05-23T10:46:41.707Z,6.50
2018-05-23T10:49:10.276Z,6.50
2018-05-23T10:51:38.846Z,7.07
2018-05-23T10:54:07.428Z,6.60
2018-05-23T10:56:36.007Z,6.77
2018-05-23T10:59:04.597Z,7.27
2018-05-23T11:01:33.176Z,6.53
2018-05-23T11:04:01.750Z,6.87
2018-05-23T11:06:30.316Z,6.57
2018-05-23T11:08:58.956Z,6.33
2018-05-23T11:11:27.677Z,6.90
2018-05-23T11:13:56.235Z,7.03
2018-05-23T11:16:24.814Z,5.80
2018-05-23T11:18:53.385Z,6.50
2018-05-23T11:21:21.947Z,5.97
2018-05-23T11:23:50.505Z,5.60
2018-05-23T11:26:19.078Z,6.47
2018-05-23T11:28:47.638Z,6.83
2018-05-23T11:31:16.236Z,7.43
2018-05-23T11:33:45.098Z,6.53
2018-05-23T11:36:13.656Z,6.87
2018-05-23T11:38:42.207Z,6.77
2018-05-23T11:41:10.804Z,6.50
2018-05-23T11:43:39.370Z,6.20
2018-05-23T11:46:07.929Z,6.23
2018-05-23T11:48:36.491Z,6.50
2018-05-23T11:51:05.050Z,5.27
2018-05-23T11:53:33.660Z,5.30
2018-05-23T11:56:02.276Z,5.90
2018-05-23T11:58:30.864Z,6.67
2018-05-23T12:01:00.283Z,5.83
2018-05-23T12:03:28.845Z,6.67
2018-05-23T12:05:57.451Z,7.00
2018-05-23T12:08:26.060Z,6.90
2018-05-23T12:10:54.618Z,8.13
2018-05-23T12:13:23.190Z,7.27
2018-05-23T12:15:51.747Z,7.77
2018-05-23T12:18:20.319Z,7.53
2018-05-23T12:20:49.884Z,8.00
2018-05-23T12:23:18.447Z,8.03
2018-05-23T12:25:47.029Z,7.47
2018-05-23T12:28:15.578Z,6.83
2018-05-23T12:30:44.132Z,8.67
2018-05-23T12:33:12.754Z,8.27
2018-05-23T12:35:41.499Z,6.90
2018-05-23T12:38:10.059Z,9.10
2018-05-23T12:40:38.671Z,9.10
2018-05-23T12:43:07.282Z,8.73
2018-05-23T12:45:35.848Z,7.50
2018-05-23T12:48:04.434Z,8.13
2018-05-23T12:50:33.075Z,9.80
2018-05-23T12:53:01.635Z,7.13
2018-05-23T12:55:30.192Z,7.60
2018-05-23T12:57:58.764Z,8.30
2018-05-23T13:00:27.357Z,7.63
2018-05-23T13:02:57.271Z,7.73
2018-05-23T13:05:25.906Z,8.83
2018-05-23T13:07:54.481Z,6.77
2018-05-23T13:10:23.061Z,8.50
2018-05-23T13:12:51.628Z,6.80
2018-05-23T13:15:24.500Z,6.00
2018-05-23T13:17:54.362Z,6.87
2018-05-23T13:20:23.104Z,7.17
2018-05-23T13:22:55.724Z,8.10
2018-05-23T13:25:26.417Z,7.63
2018-05-23T13:27:57.652Z,8.67
2018-05-23T13:30:26.345Z,8.13
2018-05-23T13:32:55.015Z,7.67
2018-05-23T13:35:23.575Z,8.60
2018-05-23T13:37:52.156Z,8.00
2018-05-23T13:40:20.750Z,9.07
2018-05-23T13:42:49.307Z,8.77
2018-05-23T13:45:17.875Z,8.50
2018-05-23T13:47:46.444Z,11.70
2018-05-23T13:50:15.016Z,14.70
2018-05-23T13:52:43.571Z,8.93
2018-05-23T13:55:12.213Z,11.43
2018-05-23T13:57:40.933Z,9.70
2018-05-23T14:00:09.563Z,13.53
2018-05-23T14:02:38.147Z,16.40
2018-05-23T14:05:06.749Z,11.83
2018-05-23T14:07:35.092Z,15.73
2018-05-23T14:10:03.357Z,15.17
2018-05-23T14:12:31.978Z,17.67
2018-05-23T14:15:00.551Z,13.27
2018-05-23T14:17:29.115Z,12.77
2018-05-23T14:19:57.675Z,12.53
2018-05-23T14:22:26.275Z,12.83
2018-05-23T14:24:54.837Z,12.20
2018-05-23T14:27:23.423Z,11.47
2018-05-23T14:29:52.001Z,11.77
2018-05-23T14:32:20.574Z,15.30
2018-05-23T14:34:49.228Z,12.27
2018-05-23T14:37:17.791Z,12.20
2018-05-23T14:39:46.354Z,13.00
2018-05-23T14:42:14.935Z,13.50
2018-05-23T14:44:43.547Z,11.70
2018-05-23T14:47:12.111Z,11.63
2018-05-23T14:49:40.691Z,11.90
2018-05-23T14:52:09.303Z,12.10
2018-05-23T14:54:37.894Z,11.27
2018-05-23T14:57:06.526Z,12.00
2018-05-23T14:59:35.090Z,11.50
2018-05-23T15:02:03.298Z,10.13
2018-05-23T15:04:31.869Z,9.67
2018-05-23T15:07:00.443Z,9.67
2018-05-23T15:09:29.022Z,9.93
2018-05-23T15:11:57.571Z,7.53
2018-05-23T15:14:26.249Z,7.30
2018-05-23T15:16:54.943Z,7.27
2018-05-23T15:19:23.499Z,7.17
2018-05-23T15:21:52.053Z,7.57
2018-05-23T15:24:20.606Z,5.77
2018-05-23T15:26:49.179Z,6.57
2018-05-23T15:29:18.389Z,6.70
2018-05-23T15:31:47.016Z,7.07
2018-05-23T15:34:15.579Z,6.10
2018-05-23T15:36:44.167Z,6.00
2018-05-23T15:39:12.768Z,5.90
2018-05-23T15:41:41.347Z,6.03
2018-05-23T15:44:10.114Z,6.60
2018-05-23T15:46:38.692Z,5.90
2018-05-23T15:49:07.275Z,6.67
2018-05-23T15:51:35.748Z,5.73
2018-05-23T15:54:04.307Z,4.60
2018-05-23T15:56:32.955Z,5.30
2018-05-23T15:59:01.530Z,4.80
2018-05-23T16:01:30.195Z,10.17
2018-05-23T16:03:58.813Z,4.77
2018-05-23T16:06:27.373Z,4.43
2018-05-23T16:08:55.931Z,5.23
2018-05-23T16:11:24.537Z,4.90
2018-05-23T16:13:53.920Z,5.10
2018-05-23T16:16:22.567Z,6.57
2018-05-23T16:18:51.134Z,4.83
2018-05-23T16:21:19.695Z,6.03
2018-05-23T16:23:48.246Z,5.70
2018-05-23T16:26:16.479Z,5.83
2018-05-23T16:28:45.078Z,6.20
2018-05-23T16:31:13.999Z,5.77
2018-05-23T16:33:42.575Z,5.40
2018-05-23T16:36:11.151Z,5.57
2018-05-23T16:38:39.709Z,5.57
2018-05-23T16:41:08.314Z,5.20
2018-05-23T16:43:36.873Z,5.47
2018-05-23T16:46:05.108Z,5.60
2018-05-23T16:48:33.687Z,6.13
2018-05-23T16:51:02.834Z,6.13
2018-05-23T16:53:31.412Z,6.07
2018-05-23T16:55:59.964Z,5.77
2018-05-23T16:58:28.555Z,5.63
2018-05-23T17:00:57.112Z,6.83
2018-05-23T17:03:26.182Z,9.67
2018-05-23T17:05:54.735Z,6.30
2018-05-23T17:08:23.340Z,6.90
2018-05-23T17:10:51.934Z,8.77
2018-05-23T17:13:20.496Z,6.87
2018-05-23T17:15:49.076Z,6.80
2018-05-23T17:18:17.647Z,6.60
2018-05-23T17:20:46.223Z,7.23
2018-05-23T17:23:14.843Z,8.27
2018-05-23T17:25:43.421Z,9.30
2018-05-23T17:28:12.017Z,8.13
2018-05-23T17:30:40.584Z,8.00
2018-05-23T17:33:09.152Z,7.43
2018-05-23T17:35:37.711Z,7.17
2018-05-23T17:38:06.297Z,7.20
2018-05-23T17:40:34.947Z,7.83
2018-05-23T17:43:03.507Z,7.50
2018-05-23T17:45:32.119Z,7.57
2018-05-23T17:48:00.677Z,8.23
2018-05-23T17:50:29.287Z,7.70
2018-05-23T17:52:57.847Z,7.10
2018-05-23T17:55:26.441Z,8.73
2018-05-23T17:57:55.026Z,7.93
2018-05-23T18:00:23.602Z,9.07
2018-05-23T18:02:52.155Z,8.30
2018-05-23T18:05:20.722Z,8.00
2018-05-23T18:07:49.267Z,7.97
2018-05-23T18:10:17.834Z,7.97
2018-05-23T18:12:46.402Z,7.80
2018-05-23T18:15:14.970Z,7.70
2018-05-23T18:17:43.609Z,8.10
2018-05-23T18:20:12.299Z,8.10
2018-05-23T18:22:40.879Z,7.60
2018-05-23T18:25:09.432Z,7.80
2018-05-23T18:27:38.071Z,8.07
2018-05-23T18:30:06.681Z,7.27
2018-05-23T18:32:35.234Z,7.30
2018-05-23T18:35:03.828Z,6.90
2018-05-23T18:37:32.396Z,6.63
2018-05-23T18:40:00.989Z,7.37
2018-05-23T18:42:29.564Z,7.33
2018-05-23T18:44:58.120Z,7.40
2018-05-23T18:47:26.692Z,7.67
2018-05-23T18:49:55.243Z,7.87
2018-05-23T18:52:23.853Z,8.27
2018-05-23T18:54:53.295Z,8.37
2018-05-23T18:57:21.910Z,7.90
2018-05-23T18:59:52.832Z,7.97
2018-05-23T19:02:21.407Z,8.13
2018-05-23T19:04:49.990Z,8.53
2018-05-23T19:07:18.386Z,8.73
2018-05-23T19:09:47.087Z,8.27
2018-05-23T19:12:15.708Z,7.83
2018-05-23T19:14:44.488Z,7.63
2018-05-23T19:17:13.419Z,8.40
2018-05-23T19:19:42.047Z,7.67
2018-05-23T19:22:10.756Z,7.77
2018-05-23T19:24:39.497Z,8.03
2018-05-23T19:27:08.083Z,9.00
2018-05-23T19:29:37.532Z,9.97
2018-05-23T19:32:06.106Z,10.30
2018-05-23T19:34:34.895Z,9.80
2018-05-23T19:37:03.497Z,10.30
2018-05-23T19:39:32.081Z,10.50
2018-05-23T19:42:00.699Z,11.40
2018-05-23T19:44:29.271Z,9.93
2018-05-23T19:46:58.706Z,9.43
2018-05-23T19:49:26.974Z,9.80
2018-05-23T19:51:55.578Z,10.13
2018-05-23T19:54:24.198Z,9.70
2018-05-23T19:56:52.754Z,9.90
2018-05-23T19:59:22.124Z,10.20
2018-05-23T20:01:50.690Z,8.90
2018-05-23T20:04:19.272Z,10.20
2018-05-23T20:06:47.868Z,10.43
2018-05-23T20:09:16.431Z,10.90
2018-05-23T20:11:44.996Z,10.53
2018-05-23T20:14:13.663Z,9.63
2018-05-23T20:16:42.360Z,10.67
2018-05-23T20:19:10.923Z,10.20
2018-05-23T20:21:39.484Z,10.20
2018-05-23T20:24:08.044Z,9.37
2018-05-23T20:26:36.627Z,9.43
2018-05-23T20:29:05.187Z,9.20
2018-05-23T20:31:34.730Z,8.87
2018-05-23T20:34:03.322Z,9.70
2018-05-23T20:36:31.878Z,9.70
2018-05-23T20:39:00.444Z,8.60
2018-05-23T20:41:29.043Z,9.80
2018-05-23T20:43:57.615Z,9.40
2018-05-23T20:46:26.170Z,8.90
2018-05-23T20:48:54.732Z,9.10
2018-05-23T20:51:23.336Z,9.67
2018-05-23T20:53:51.890Z,9.00
2018-05-23T20:56:20.500Z,12.10
2018-05-23T20:58:49.136Z,9.40
2018-05-23T21:01:17.886Z,10.00
2018-05-23T21:03:46.489Z,9.43
2018-05-23T21:06:15.261Z,9.37
2018-05-23T21:08:43.822Z,9.57
2018-05-23T21:11:12.421Z,9.27
2018-05-23T21:13:41.020Z,9.73
2018-05-23T21:16:09.612Z,9.23
2018-05-23T21:18:38.180Z,9.00
2018-05-23T21:21:06.805Z,9.43
2018-05-23T21:23:35.377Z,8.93
2018-05-23T21:26:04.787Z,8.77
2018-05-23T21:28:33.343Z,8.67
2018-05-23T21:31:01.967Z,8.63
2018-05-23T21:33:30.536Z,9.20
2018-05-23T21:35:59.123Z,8.70
2018-05-23T21:38:27.687Z,9.17
2018-05-23T21:40:55.947Z,9.53
2018-05-23T21:43:24.516Z,10.83
2018-05-23T21:45:53.094Z,10.60
2018-05-23T21:48:21.684Z,11.30
2018-05-23T21:51:02.204Z,11.57
2018-05-23T21:53:30.782Z,9.03
2018-05-23T21:55:59.342Z,9.67
2018-05-23T21:58:27.919Z,9.50
2018-05-23T22:00:56.486Z,10.70
2018-05-23T22:03:25.042Z,9.70
2018-05-23T22:05:53.604Z,10.87
2018-05-23T22:08:22.183Z,12.43
2018-05-23T22:10:50.745Z,10.67
2018-05-23T22:13:19.303Z,9.83
2018-05-23T22:18:21.820Z,10.07
2018-05-23T22:20:50.517Z,8.73
2018-05-23T22:23:19.078Z,10.57
2018-05-23T22:25:47.666Z,8.37
2018-05-23T22:28:16.209Z,7.97
2018-05-23T22:30:44.826Z,8.10
2018-05-23T22:33:13.510Z,8.23
2018-05-23T22:35:42.062Z,7.80
2018-05-23T22:38:10.632Z,7.20
2018-05-23T22:40:39.181Z,7.30
2018-05-23T22:43:07.741Z,7.37
2018-05-23T22:45:36.305Z,8.33
2018-05-23T22:48:04.868Z,7.57
2018-05-23T22:50:33.427Z,8.57
2018-05-23T22:53:01.981Z,7.90
2018-05-23T22:55:30.568Z,7.93
2018-05-23T22:57:59.132Z,7.70
2018-05-23T23:00:27.003Z,7.43
2018-05-23T23:02:55.584Z,8.17
2018-05-23T23:05:24.152Z,6.93
2018-05-23T23:07:52.713Z,7.53
2018-05-23T23:10:21.297Z,8.30
2018-05-23T23:12:49.857Z,7.37
2018-05-23T23:15:18.423Z,7.63
2018-05-23T23:17:46.979Z,7.83
2018-05-23T23:20:15.530Z,9.80
2018-05-23T23:22:44.097Z,9.70
2018-05-23T23:25:12.668Z,11.17
2018-05-23T23:27:41.310Z,11.43
2018-05-23T23:30:10.107Z,13.50
2018-05-23T23:32:38.680Z,14.53
2018-05-23T23:35:07.253Z,12.80
2018-05-23T23:37:35.875Z,16.70
2018-05-23T23:40:04.108Z,17.20
2018-05-23T23:42:32.684Z,15.40
2018-05-23T23:45:01.256Z,15.93
2018-05-23T23:47:29.822Z,16.10
2018-05-23T23:49:58.158Z,15.37
2018-05-23T23:52:26.743Z,15.03
2018-05-23T23:54:55.302Z,14.90
2018-05-23T23:57:23.875Z,14.80
2018-05-23T23:59:52.431Z,14.37
